Decoded Metar for GMTT (TANGER in MOROCCO) (IATA:TNG) | Meteo·Mobile Aviation Weather
aviador You're here:

GMTT Decoded Metar

TANGER in MOROCCO
Report Time2019-09-21 10:00:00
UTC Time2019-09-21 10:07:04
Flight Rules vfr VFR
WindVRB at 03 kt
Visibility9999 m
Phenomena:N/A
Clouds:N/A
Expected CloudBase > 2,800 ft AGL from Temp-Dew spread
CeilingNone
Temp23°C (ISA +8)
Dew Point16°C (65% RH)
QNH1015 hPa
Density Alt1,191 ft
Elevation69 ft
Report Wrong Elevation
Raw Report
METAR GMTT 211000Z VRB03KT CAVOK 23/16 Q1015 NOSIG=

Extra information for GMTT:More info

Metar Taf Metar & Taf Last 4 Metars F.Rules Stats Wind Profile Meteogram Temp Stats Airport Information Weather charts Add Link Nearby VenuesMetar ALERT Operation Metar Decoded Social comments